sensor_id;sensor_type;location;lat;lon;timestamp;P1;durP1;ratioP1;P2;durP2;ratioP2
72156;SDS011;60035;52.122;5.406;2022-12-18T00:01:19;37.05;;;13.88;;
72156;SDS011;60035;52.122;5.406;2022-12-18T00:03:51;41.85;;;14.23;;
72156;SDS011;60035;52.122;5.406;2022-12-18T00:06:19;43.08;;;14.05;;
72156;SDS011;60035;52.122;5.406;2022-12-18T00:08:46;45.58;;;14.88;;
72156;SDS011;60035;52.122;5.406;2022-12-18T00:11:14;44.08;;;15.18;;
72156;SDS011;60035;52.122;5.406;2022-12-18T00:13:43;43.60;;;15.95;;
72156;SDS011;60035;52.122;5.406;2022-12-18T00:16:11;42.72;;;13.20;;
72156;SDS011;60035;52.122;5.406;2022-12-18T00:18:39;55.67;;;18.25;;
72156;SDS011;60035;52.122;5.406;2022-12-18T00:21:08;44.10;;;14.48;;
72156;SDS011;60035;52.122;5.406;2022-12-18T00:23:36;38.78;;;12.00;;
72156;SDS011;60035;52.122;5.406;2022-12-18T00:26:05;48.55;;;16.00;;
72156;SDS011;60035;52.122;5.406;2022-12-18T00:28:34;45.95;;;15.38;;
72156;SDS011;60035;52.122;5.406;2022-12-18T00:31:01;47.95;;;14.70;;
72156;SDS011;60035;52.122;5.406;2022-12-18T00:33:33;50.85;;;16.40;;
72156;SDS011;60035;52.122;5.406;2022-12-18T00:36:01;47.13;;;14.50;;
72156;SDS011;60035;52.122;5.406;2022-12-18T00:38:32;49.75;;;15.20;;
72156;SDS011;60035;52.122;5.406;2022-12-18T00:40:58;50.00;;;16.13;;
72156;SDS011;60035;52.122;5.406;2022-12-18T00:43:25;44.65;;;14.52;;
72156;SDS011;60035;52.122;5.406;2022-12-18T00:45:52;49.95;;;16.85;;
72156;SDS011;60035;52.122;5.406;2022-12-18T00:48:20;48.97;;;15.55;;
72156;SDS011;60035;52.122;5.406;2022-12-18T00:50:50;40.70;;;13.27;;
72156;SDS011;60035;52.122;5.406;2022-12-18T00:53:17;46.72;;;13.57;;
72156;SDS011;60035;52.122;5.406;2022-12-18T00:55:44;40.80;;;14.02;;
72156;SDS011;60035;52.122;5.406;2022-12-18T00:58:11;51.20;;;15.43;;
72156;SDS011;60035;52.122;5.406;2022-12-18T01:00:39;36.95;;;12.30;;
72156;SDS011;60035;52.122;5.406;2022-12-18T01:03:06;43.08;;;14.73;;
72156;SDS011;60035;52.122;5.406;2022-12-18T01:05:33;53.42;;;16.30;;
72156;SDS011;60035;52.122;5.406;2022-12-18T01:08:00;47.33;;;15.23;;
72156;SDS011;60035;52.122;5.406;2022-12-18T01:10:26;49.92;;;17.42;;
72156;SDS011;60035;52.122;5.406;2022-12-18T01:12:53;44.90;;;14.85;;
72156;SDS011;60035;52.122;5.406;2022-12-18T01:15:20;38.05;;;13.63;;
72156;SDS011;60035;52.122;5.406;2022-12-18T01:17:46;49.70;;;16.00;;
72156;SDS011;60035;52.122;5.406;2022-12-18T01:20:13;55.13;;;16.48;;
72156;SDS011;60035;52.122;5.406;2022-12-18T01:22:40;47.53;;;14.32;;
72156;SDS011;60035;52.122;5.406;2022-12-18T01:25:07;47.35;;;15.45;;
72156;SDS011;60035;52.122;5.406;2022-12-18T01:27:34;44.13;;;13.20;;
72156;SDS011;60035;52.122;5.406;2022-12-18T01:30:00;57.05;;;16.95;;
72156;SDS011;60035;52.122;5.406;2022-12-18T01:32:29;50.72;;;14.23;;
72156;SDS011;60035;52.122;5.406;2022-12-18T01:34:56;45.45;;;15.27;;
72156;SDS011;60035;52.122;5.406;2022-12-18T01:37:23;45.15;;;14.85;;
72156;SDS011;60035;52.122;5.406;2022-12-18T01:39:51;45.97;;;14.52;;
72156;SDS011;60035;52.122;5.406;2022-12-18T01:42:20;51.40;;;17.05;;
72156;SDS011;60035;52.122;5.406;2022-12-18T01:44:55;41.53;;;12.60;;
72156;SDS011;60035;52.122;5.406;2022-12-18T01:47:56;47.35;;;14.85;;
72156;SDS011;60035;52.122;5.406;2022-12-18T01:50:38;41.00;;;13.45;;
72156;SDS011;60035;52.122;5.406;2022-12-18T01:53:17;49.33;;;14.65;;
72156;SDS011;60035;52.122;5.406;2022-12-18T01:55:50;43.55;;;13.38;;
72156;SDS011;60035;52.122;5.406;2022-12-18T01:58:19;40.58;;;13.35;;
72156;SDS011;60035;52.122;5.406;2022-12-18T02:00:49;42.42;;;14.77;;
72156;SDS011;60035;52.122;5.406;2022-12-18T02:03:15;37.58;;;12.88;;
72156;SDS011;60035;52.122;5.406;2022-12-18T02:08:39;39.55;;;11.85;;
72156;SDS011;60035;52.122;5.406;2022-12-18T02:14:21;44.05;;;14.02;;
72156;SDS011;60035;52.122;5.406;2022-12-18T02:17:04;40.38;;;12.55;;
72156;SDS011;60035;52.122;5.406;2022-12-18T02:28:20;38.78;;;12.68;;
72156;SDS011;60035;52.122;5.406;2022-12-18T02:30:52;41.88;;;13.23;;
72156;SDS011;60035;52.122;5.406;2022-12-18T02:33:22;43.92;;;14.13;;
72156;SDS011;60035;52.122;5.406;2022-12-18T02:35:51;44.45;;;13.18;;
72156;SDS011;60035;52.122;5.406;2022-12-18T02:38:20;42.53;;;13.98;;
72156;SDS011;60035;52.122;5.406;2022-12-18T02:40:47;40.40;;;13.35;;
72156;SDS011;60035;52.122;5.406;2022-12-18T02:43:16;41.53;;;13.35;;
72156;SDS011;60035;52.122;5.406;2022-12-18T02:45:52;37.17;;;12.25;;
72156;SDS011;60035;52.122;5.406;2022-12-18T02:48:23;37.53;;;13.18;;
72156;SDS011;60035;52.122;5.406;2022-12-18T02:50:57;41.30;;;13.07;;
72156;SDS011;60035;52.122;5.406;2022-12-18T02:54:06;40.17;;;12.05;;
72156;SDS011;60035;52.122;5.406;2022-12-18T02:56:44;39.78;;;12.95;;
72156;SDS011;60035;52.122;5.406;2022-12-18T02:59:16;36.65;;;12.98;;
72156;SDS011;60035;52.122;5.406;2022-12-18T03:01:55;38.85;;;12.77;;
72156;SDS011;60035;52.122;5.406;2022-12-18T03:04:31;39.65;;;12.85;;
72156;SDS011;60035;52.122;5.406;2022-12-18T03:07:06;37.53;;;11.80;;
72156;SDS011;60035;52.122;5.406;2022-12-18T03:09:40;39.22;;;12.73;;
72156;SDS011;60035;52.122;5.406;2022-12-18T03:12:18;38.40;;;13.20;;
72156;SDS011;60035;52.122;5.406;2022-12-18T03:14:58;39.40;;;12.77;;
72156;SDS011;60035;52.122;5.406;2022-12-18T03:17:31;41.15;;;11.88;;
72156;SDS011;60035;52.122;5.406;2022-12-18T03:20:02;41.78;;;13.35;;
72156;SDS011;60035;52.122;5.406;2022-12-18T03:22:33;34.85;;;12.60;;
72156;SDS011;60035;52.122;5.406;2022-12-18T03:25:04;39.95;;;12.45;;
72156;SDS011;60035;52.122;5.406;2022-12-18T03:27:38;38.17;;;12.30;;
72156;SDS011;60035;52.122;5.406;2022-12-18T03:30:11;41.42;;;12.93;;
72156;SDS011;60035;52.122;5.406;2022-12-18T03:32:44;37.03;;;11.60;;
72156;SDS011;60035;52.122;5.406;2022-12-18T03:35:16;34.60;;;12.10;;
72156;SDS011;60035;52.122;5.406;2022-12-18T03:37:47;43.45;;;12.95;;
72156;SDS011;60035;52.122;5.406;2022-12-18T03:40:14;38.08;;;12.63;;
72156;SDS011;60035;52.122;5.406;2022-12-18T03:42:51;37.13;;;11.93;;
72156;SDS011;60035;52.122;5.406;2022-12-18T03:56:16;37.38;;;12.15;;
72156;SDS011;60035;52.122;5.406;2022-12-18T03:58:45;33.47;;;11.25;;
72156;SDS011;60035;52.122;5.406;2022-12-18T04:01:13;35.65;;;12.60;;
72156;SDS011;60035;52.122;5.406;2022-12-18T04:03:42;34.13;;;12.27;;
72156;SDS011;60035;52.122;5.406;2022-12-18T04:06:12;38.83;;;12.20;;
72156;SDS011;60035;52.122;5.406;2022-12-18T04:08:40;34.65;;;11.13;;
72156;SDS011;60035;52.122;5.406;2022-12-18T04:11:07;36.20;;;12.32;;
72156;SDS011;60035;52.122;5.406;2022-12-18T04:13:36;35.13;;;12.07;;
72156;SDS011;60035;52.122;5.406;2022-12-18T04:16:04;38.20;;;12.82;;
72156;SDS011;60035;52.122;5.406;2022-12-18T04:18:31;33.83;;;10.98;;
72156;SDS011;60035;52.122;5.406;2022-12-18T04:20:58;28.98;;;11.88;;
72156;SDS011;60035;52.122;5.406;2022-12-18T04:23:24;26.10;;;10.10;;
72156;SDS011;60035;52.122;5.406;2022-12-18T04:25:51;31.10;;;11.18;;
72156;SDS011;60035;52.122;5.406;2022-12-18T04:28:18;35.63;;;11.45;;
72156;SDS011;60035;52.122;5.406;2022-12-18T04:30:45;36.30;;;11.45;;
72156;SDS011;60035;52.122;5.406;2022-12-18T04:33:14;28.58;;;10.30;;
72156;SDS011;60035;52.122;5.406;2022-12-18T04:35:41;30.85;;;10.75;;
72156;SDS011;60035;52.122;5.406;2022-12-18T04:38:09;28.08;;;10.68;;
72156;SDS011;60035;52.122;5.406;2022-12-18T04:40:38;30.35;;;11.10;;
72156;SDS011;60035;52.122;5.406;2022-12-18T04:43:06;34.17;;;11.60;;
72156;SDS011;60035;52.122;5.406;2022-12-18T04:45:33;33.03;;;11.88;;
72156;SDS011;60035;52.122;5.406;2022-12-18T04:48:00;27.75;;;10.55;;
72156;SDS011;60035;52.122;5.406;2022-12-18T04:50:28;31.33;;;10.63;;
72156;SDS011;60035;52.122;5.406;2022-12-18T04:52:55;22.23;;;9.32;;
72156;SDS011;60035;52.122;5.406;2022-12-18T04:55:22;25.98;;;10.02;;
72156;SDS011;60035;52.122;5.406;2022-12-18T04:57:49;26.70;;;9.82;;
72156;SDS011;60035;52.122;5.406;2022-12-18T05:00:15;24.45;;;9.18;;
72156;SDS011;60035;52.122;5.406;2022-12-18T05:02:42;30.70;;;11.80;;
72156;SDS011;60035;52.122;5.406;2022-12-18T05:05:09;25.90;;;9.98;;
72156;SDS011;60035;52.122;5.406;2022-12-18T05:07:35;21.25;;;7.40;;
72156;SDS011;60035;52.122;5.406;2022-12-18T05:10:02;25.77;;;10.13;;
72156;SDS011;60035;52.122;5.406;2022-12-18T05:12:31;28.02;;;11.15;;
72156;SDS011;60035;52.122;5.406;2022-12-18T05:14:57;23.25;;;9.55;;
72156;SDS011;60035;52.122;5.406;2022-12-18T05:17:24;25.73;;;8.98;;
72156;SDS011;60035;52.122;5.406;2022-12-18T05:19:51;24.23;;;9.25;;
72156;SDS011;60035;52.122;5.406;2022-12-18T05:22:17;28.13;;;9.30;;
72156;SDS011;60035;52.122;5.406;2022-12-18T05:24:44;27.73;;;9.23;;
72156;SDS011;60035;52.122;5.406;2022-12-18T05:27:10;24.85;;;9.88;;
72156;SDS011;60035;52.122;5.406;2022-12-18T05:29:37;22.75;;;9.00;;
72156;SDS011;60035;52.122;5.406;2022-12-18T05:32:03;25.10;;;8.88;;
72156;SDS011;60035;52.122;5.406;2022-12-18T05:34:30;19.50;;;8.45;;
72156;SDS011;60035;52.122;5.406;2022-12-18T05:36:58;22.08;;;8.18;;
72156;SDS011;60035;52.122;5.406;2022-12-18T05:39:24;19.10;;;8.48;;
72156;SDS011;60035;52.122;5.406;2022-12-18T05:41:51;21.63;;;8.57;;
72156;SDS011;60035;52.122;5.406;2022-12-18T05:44:17;23.67;;;8.35;;
72156;SDS011;60035;52.122;5.406;2022-12-18T05:46:44;24.25;;;9.27;;
72156;SDS011;60035;52.122;5.406;2022-12-18T05:49:11;24.02;;;9.07;;
72156;SDS011;60035;52.122;5.406;2022-12-18T05:51:40;24.67;;;9.45;;
72156;SDS011;60035;52.122;5.406;2022-12-18T05:54:07;26.45;;;8.32;;
72156;SDS011;60035;52.122;5.406;2022-12-18T05:56:34;24.08;;;8.70;;
72156;SDS011;60035;52.122;5.406;2022-12-18T05:59:00;22.27;;;8.73;;
72156;SDS011;60035;52.122;5.406;2022-12-18T06:01:28;22.02;;;7.88;;
72156;SDS011;60035;52.122;5.406;2022-12-18T06:03:54;21.52;;;9.15;;
72156;SDS011;60035;52.122;5.406;2022-12-18T06:06:22;23.13;;;8.00;;
72156;SDS011;60035;52.122;5.406;2022-12-18T06:08:50;21.48;;;8.48;;
72156;SDS011;60035;52.122;5.406;2022-12-18T06:11:18;24.20;;;8.77;;
72156;SDS011;60035;52.122;5.406;2022-12-18T06:13:51;18.98;;;7.78;;
72156;SDS011;60035;52.122;5.406;2022-12-18T06:16:23;22.67;;;8.18;;
72156;SDS011;60035;52.122;5.406;2022-12-18T06:18:50;22.25;;;8.00;;
72156;SDS011;60035;52.122;5.406;2022-12-18T06:21:17;18.83;;;8.52;;
72156;SDS011;60035;52.122;5.406;2022-12-18T06:23:44;20.30;;;7.53;;
72156;SDS011;60035;52.122;5.406;2022-12-18T06:26:10;22.80;;;8.27;;
72156;SDS011;60035;52.122;5.406;2022-12-18T06:28:38;21.50;;;8.20;;
72156;SDS011;60035;52.122;5.406;2022-12-18T06:31:06;21.65;;;8.13;;
72156;SDS011;60035;52.122;5.406;2022-12-18T06:33:33;22.02;;;8.32;;
72156;SDS011;60035;52.122;5.406;2022-12-18T06:36:01;17.60;;;7.75;;
72156;SDS011;60035;52.122;5.406;2022-12-18T06:38:30;17.75;;;6.68;;
72156;SDS011;60035;52.122;5.406;2022-12-18T06:40:57;24.15;;;9.15;;
72156;SDS011;60035;52.122;5.406;2022-12-18T06:43:24;16.38;;;6.50;;
72156;SDS011;60035;52.122;5.406;2022-12-18T06:45:50;17.98;;;7.72;;
72156;SDS011;60035;52.122;5.406;2022-12-18T06:48:19;20.00;;;7.85;;
72156;SDS011;60035;52.122;5.406;2022-12-18T06:50:46;20.05;;;8.30;;
72156;SDS011;60035;52.122;5.406;2022-12-18T06:53:12;18.52;;;7.95;;
72156;SDS011;60035;52.122;5.406;2022-12-18T06:55:42;22.85;;;7.65;;
72156;SDS011;60035;52.122;5.406;2022-12-18T06:58:09;23.60;;;7.57;;
72156;SDS011;60035;52.122;5.406;2022-12-18T07:00:36;23.90;;;8.20;;
72156;SDS011;60035;52.122;5.406;2022-12-18T07:03:03;19.17;;;8.43;;
72156;SDS011;60035;52.122;5.406;2022-12-18T07:05:29;18.90;;;7.72;;
72156;SDS011;60035;52.122;5.406;2022-12-18T07:07:57;21.45;;;8.05;;
72156;SDS011;60035;52.122;5.406;2022-12-18T07:10:24;19.83;;;7.22;;
72156;SDS011;60035;52.122;5.406;2022-12-18T07:12:50;23.63;;;7.97;;
72156;SDS011;60035;52.122;5.406;2022-12-18T07:15:17;20.92;;;7.32;;
72156;SDS011;60035;52.122;5.406;2022-12-18T07:17:43;17.50;;;6.85;;
72156;SDS011;60035;52.122;5.406;2022-12-18T07:20:10;21.70;;;9.20;;
72156;SDS011;60035;52.122;5.406;2022-12-18T07:22:37;20.02;;;7.60;;
72156;SDS011;60035;52.122;5.406;2022-12-18T07:25:03;22.23;;;8.70;;
72156;SDS011;60035;52.122;5.406;2022-12-18T07:27:30;19.35;;;7.60;;
72156;SDS011;60035;52.122;5.406;2022-12-18T07:29:57;19.35;;;7.35;;
72156;SDS011;60035;52.122;5.406;2022-12-18T07:32:23;18.88;;;7.50;;
72156;SDS011;60035;52.122;5.406;2022-12-18T07:34:50;22.05;;;8.55;;
72156;SDS011;60035;52.122;5.406;2022-12-18T07:37:16;21.23;;;7.35;;
72156;SDS011;60035;52.122;5.406;2022-12-18T07:39:42;23.58;;;8.15;;
72156;SDS011;60035;52.122;5.406;2022-12-18T07:42:09;22.42;;;7.88;;
72156;SDS011;60035;52.122;5.406;2022-12-18T07:44:54;26.15;;;8.75;;
72156;SDS011;60035;52.122;5.406;2022-12-18T07:47:20;21.48;;;9.27;;
72156;SDS011;60035;52.122;5.406;2022-12-18T07:49:47;21.77;;;7.63;;
72156;SDS011;60035;52.122;5.406;2022-12-18T07:52:13;19.95;;;8.10;;
72156;SDS011;60035;52.122;5.406;2022-12-18T07:54:40;19.58;;;8.20;;
72156;SDS011;60035;52.122;5.406;2022-12-18T07:57:07;21.33;;;8.65;;
72156;SDS011;60035;52.122;5.406;2022-12-18T07:59:53;22.55;;;8.68;;
72156;SDS011;60035;52.122;5.406;2022-12-18T08:02:20;18.17;;;7.38;;
72156;SDS011;60035;52.122;5.406;2022-12-18T08:04:46;20.50;;;8.68;;
72156;SDS011;60035;52.122;5.406;2022-12-18T08:07:13;21.80;;;8.00;;
72156;SDS011;60035;52.122;5.406;2022-12-18T08:09:39;22.88;;;7.13;;
72156;SDS011;60035;52.122;5.406;2022-12-18T08:12:06;20.13;;;7.53;;
72156;SDS011;60035;52.122;5.406;2022-12-18T08:14:32;18.85;;;8.50;;
72156;SDS011;60035;52.122;5.406;2022-12-18T08:16:58;21.75;;;8.43;;
72156;SDS011;60035;52.122;5.406;2022-12-18T08:19:25;20.95;;;8.63;;
72156;SDS011;60035;52.122;5.406;2022-12-18T08:21:51;21.90;;;9.43;;
72156;SDS011;60035;52.122;5.406;2022-12-18T08:24:18;19.42;;;8.63;;
72156;SDS011;60035;52.122;5.406;2022-12-18T08:26:44;25.00;;;10.45;;
72156;SDS011;60035;52.122;5.406;2022-12-18T08:29:31;19.48;;;9.15;;
72156;SDS011;60035;52.122;5.406;2022-12-18T08:31:58;22.08;;;9.38;;
72156;SDS011;60035;52.122;5.406;2022-12-18T08:34:24;25.60;;;9.95;;
72156;SDS011;60035;52.122;5.406;2022-12-18T08:36:51;25.90;;;10.93;;
72156;SDS011;60035;52.122;5.406;2022-12-18T08:39:17;23.00;;;9.70;;
72156;SDS011;60035;52.122;5.406;2022-12-18T08:41:44;23.33;;;10.63;;
72156;SDS011;60035;52.122;5.406;2022-12-18T08:44:35;19.45;;;8.07;;
72156;SDS011;60035;52.122;5.406;2022-12-18T08:47:05;20.08;;;8.15;;
72156;SDS011;60035;52.122;5.406;2022-12-18T08:49:33;23.95;;;9.38;;
72156;SDS011;60035;52.122;5.406;2022-12-18T08:52:00;24.52;;;9.15;;
72156;SDS011;60035;52.122;5.406;2022-12-18T08:54:28;24.65;;;10.93;;
72156;SDS011;60035;52.122;5.406;2022-12-18T08:56:55;28.15;;;11.02;;
72156;SDS011;60035;52.122;5.406;2022-12-18T08:59:22;24.35;;;11.02;;
72156;SDS011;60035;52.122;5.406;2022-12-18T09:01:49;26.88;;;10.88;;
72156;SDS011;60035;52.122;5.406;2022-12-18T09:04:16;28.38;;;11.35;;
72156;SDS011;60035;52.122;5.406;2022-12-18T09:06:43;25.85;;;10.15;;
72156;SDS011;60035;52.122;5.406;2022-12-18T09:09:09;28.92;;;11.82;;
72156;SDS011;60035;52.122;5.406;2022-12-18T09:11:36;30.55;;;11.32;;
72156;SDS011;60035;52.122;5.406;2022-12-18T09:14:03;28.05;;;10.65;;
72156;SDS011;60035;52.122;5.406;2022-12-18T09:16:31;21.35;;;9.10;;
72156;SDS011;60035;52.122;5.406;2022-12-18T09:19:03;25.45;;;10.00;;
72156;SDS011;60035;52.122;5.406;2022-12-18T09:21:31;22.63;;;9.68;;
72156;SDS011;60035;52.122;5.406;2022-12-18T09:24:02;27.08;;;10.25;;
72156;SDS011;60035;52.122;5.406;2022-12-18T09:26:30;25.10;;;11.60;;
72156;SDS011;60035;52.122;5.406;2022-12-18T09:28:58;22.63;;;10.00;;
72156;SDS011;60035;52.122;5.406;2022-12-18T09:31:25;25.80;;;10.10;;
72156;SDS011;60035;52.122;5.406;2022-12-18T09:33:51;25.63;;;10.68;;
72156;SDS011;60035;52.122;5.406;2022-12-18T09:36:18;22.33;;;10.13;;
72156;SDS011;60035;52.122;5.406;2022-12-18T09:38:47;20.55;;;8.77;;
72156;SDS011;60035;52.122;5.406;2022-12-18T09:44:26;25.38;;;10.65;;
72156;SDS011;60035;52.122;5.406;2022-12-18T09:47:13;22.60;;;9.32;;
72156;SDS011;60035;52.122;5.406;2022-12-18T09:49:45;22.08;;;8.68;;
72156;SDS011;60035;52.122;5.406;2022-12-18T09:52:16;22.08;;;9.57;;
72156;SDS011;60035;52.122;5.406;2022-12-18T09:55:03;20.48;;;8.43;;
72156;SDS011;60035;52.122;5.406;2022-12-18T09:57:57;18.60;;;8.38;;
72156;SDS011;60035;52.122;5.406;2022-12-18T10:00:32;18.98;;;9.23;;
72156;SDS011;60035;52.122;5.406;2022-12-18T10:02:59;21.95;;;8.60;;
72156;SDS011;60035;52.122;5.406;2022-12-18T10:11:16;19.88;;;8.00;;
72156;SDS011;60035;52.122;5.406;2022-12-18T10:13:47;18.05;;;7.75;;
72156;SDS011;60035;52.122;5.406;2022-12-18T10:16:30;18.33;;;7.70;;
72156;SDS011;60035;52.122;5.406;2022-12-18T10:19:53;21.25;;;9.25;;
72156;SDS011;60035;52.122;5.406;2022-12-18T10:22:13;15.10;;;5.95;;
72156;SDS011;60035;52.122;5.406;2022-12-18T10:24:54;17.55;;;7.15;;
72156;SDS011;60035;52.122;5.406;2022-12-18T10:27:26;17.98;;;7.18;;
72156;SDS011;60035;52.122;5.406;2022-12-18T10:29:54;19.20;;;7.57;;
72156;SDS011;60035;52.122;5.406;2022-12-18T10:32:23;19.98;;;8.55;;
72156;SDS011;60035;52.122;5.406;2022-12-18T10:34:53;20.60;;;8.82;;
72156;SDS011;60035;52.122;5.406;2022-12-18T10:37:26;17.55;;;7.20;;
72156;SDS011;60035;52.122;5.406;2022-12-18T10:40:05;18.73;;;7.47;;
72156;SDS011;60035;52.122;5.406;2022-12-18T10:42:49;19.45;;;7.68;;
72156;SDS011;60035;52.122;5.406;2022-12-18T10:45:30;17.30;;;6.88;;
72156;SDS011;60035;52.122;5.406;2022-12-18T10:47:56;23.48;;;8.23;;
72156;SDS011;60035;52.122;5.406;2022-12-18T10:50:30;16.30;;;7.45;;
72156;SDS011;60035;52.122;5.406;2022-12-18T10:53:28;16.45;;;6.30;;
72156;SDS011;60035;52.122;5.406;2022-12-18T10:56:00;21.55;;;7.50;;
72156;SDS011;60035;52.122;5.406;2022-12-18T11:01:08;18.67;;;7.03;;
72156;SDS011;60035;52.122;5.406;2022-12-18T11:03:43;19.75;;;7.55;;
72156;SDS011;60035;52.122;5.406;2022-12-18T11:06:17;18.95;;;7.55;;
72156;SDS011;60035;52.122;5.406;2022-12-18T11:08:58;16.33;;;6.68;;
72156;SDS011;60035;52.122;5.406;2022-12-18T11:11:39;18.50;;;7.45;;
72156;SDS011;60035;52.122;5.406;2022-12-18T11:14:13;17.88;;;7.45;;
72156;SDS011;60035;52.122;5.406;2022-12-18T11:16:47;20.08;;;7.22;;
72156;SDS011;60035;52.122;5.406;2022-12-18T11:19:39;16.73;;;6.10;;
72156;SDS011;60035;52.122;5.406;2022-12-18T11:22:20;16.98;;;6.57;;
72156;SDS011;60035;52.122;5.406;2022-12-18T11:24:59;16.92;;;6.28;;
72156;SDS011;60035;52.122;5.406;2022-12-18T11:27:48;18.65;;;7.30;;
72156;SDS011;60035;52.122;5.406;2022-12-18T11:38:20;18.45;;;7.35;;
72156;SDS011;60035;52.122;5.406;2022-12-18T11:46:30;17.92;;;7.40;;
72156;SDS011;60035;52.122;5.406;2022-12-18T11:49:01;18.40;;;6.88;;
72156;SDS011;60035;52.122;5.406;2022-12-18T11:51:41;19.95;;;6.60;;
72156;SDS011;60035;52.122;5.406;2022-12-18T11:54:14;20.85;;;8.02;;
72156;SDS011;60035;52.122;5.406;2022-12-18T11:56:53;18.02;;;7.07;;
72156;SDS011;60035;52.122;5.406;2022-12-18T12:02:33;18.70;;;7.38;;
72156;SDS011;60035;52.122;5.406;2022-12-18T12:21:39;21.10;;;7.95;;
72156;SDS011;60035;52.122;5.406;2022-12-18T12:24:24;16.20;;;7.15;;
72156;SDS011;60035;52.122;5.406;2022-12-18T12:27:19;18.05;;;7.35;;
72156;SDS011;60035;52.122;5.406;2022-12-18T12:30:10;18.73;;;7.05;;
72156;SDS011;60035;52.122;5.406;2022-12-18T12:32:42;17.30;;;6.93;;
72156;SDS011;60035;52.122;5.406;2022-12-18T12:35:14;15.90;;;6.25;;
72156;SDS011;60035;52.122;5.406;2022-12-18T12:40:31;14.65;;;6.68;;
72156;SDS011;60035;52.122;5.406;2022-12-18T12:46:06;17.70;;;7.60;;
72156;SDS011;60035;52.122;5.406;2022-12-18T12:48:45;18.02;;;7.93;;
72156;SDS011;60035;52.122;5.406;2022-12-18T12:51:19;17.75;;;6.50;;
72156;SDS011;60035;52.122;5.406;2022-12-18T12:53:48;10.93;;;4.13;;
72156;SDS011;60035;52.122;5.406;2022-12-18T12:56:19;19.65;;;7.30;;
72156;SDS011;60035;52.122;5.406;2022-12-18T13:01:53;18.98;;;7.35;;
72156;SDS011;60035;52.122;5.406;2022-12-18T13:07:15;17.00;;;7.20;;
72156;SDS011;60035;52.122;5.406;2022-12-18T13:12:58;17.67;;;6.55;;
72156;SDS011;60035;52.122;5.406;2022-12-18T13:20:36;19.50;;;7.82;;
72156;SDS011;60035;52.122;5.406;2022-12-18T13:31:00;19.13;;;8.30;;
72156;SDS011;60035;52.122;5.406;2022-12-18T13:41:47;18.17;;;7.97;;
72156;SDS011;60035;52.122;5.406;2022-12-18T13:44:38;18.05;;;7.38;;
72156;SDS011;60035;52.122;5.406;2022-12-18T13:49:54;21.15;;;7.97;;
72156;SDS011;60035;52.122;5.406;2022-12-18T13:52:23;19.83;;;7.45;;
72156;SDS011;60035;52.122;5.406;2022-12-18T13:54:52;20.55;;;8.25;;
72156;SDS011;60035;52.122;5.406;2022-12-18T13:59:59;17.48;;;7.50;;
72156;SDS011;60035;52.122;5.406;2022-12-18T14:02:50;20.42;;;7.70;;
72156;SDS011;60035;52.122;5.406;2022-12-18T14:05:28;21.33;;;8.40;;
72156;SDS011;60035;52.122;5.406;2022-12-18T14:08:05;20.42;;;8.38;;
72156;SDS011;60035;52.122;5.406;2022-12-18T14:10:44;19.35;;;8.07;;
72156;SDS011;60035;52.122;5.406;2022-12-18T14:13:18;21.02;;;8.27;;
72156;SDS011;60035;52.122;5.406;2022-12-18T14:15:49;20.52;;;8.50;;
72156;SDS011;60035;52.122;5.406;2022-12-18T14:18:21;22.00;;;7.88;;
72156;SDS011;60035;52.122;5.406;2022-12-18T14:20:54;19.23;;;8.23;;
72156;SDS011;60035;52.122;5.406;2022-12-18T14:23:30;18.38;;;8.10;;
72156;SDS011;60035;52.122;5.406;2022-12-18T14:26:25;19.90;;;8.23;;
72156;SDS011;60035;52.122;5.406;2022-12-18T14:28:55;22.45;;;7.95;;
72156;SDS011;60035;52.122;5.406;2022-12-18T14:34:15;19.92;;;7.80;;
72156;SDS011;60035;52.122;5.406;2022-12-18T14:36:44;21.77;;;8.00;;
72156;SDS011;60035;52.122;5.406;2022-12-18T14:39:20;19.60;;;7.82;;
72156;SDS011;60035;52.122;5.406;2022-12-18T14:41:50;18.85;;;8.20;;
72156;SDS011;60035;52.122;5.406;2022-12-18T14:44:17;18.45;;;7.28;;
72156;SDS011;60035;52.122;5.406;2022-12-18T14:46:47;14.43;;;6.97;;
72156;SDS011;60035;52.122;5.406;2022-12-18T14:49:23;18.85;;;7.97;;
72156;SDS011;60035;52.122;5.406;2022-12-18T14:51:54;18.52;;;7.60;;
72156;SDS011;60035;52.122;5.406;2022-12-18T14:54:23;16.20;;;6.30;;
72156;SDS011;60035;52.122;5.406;2022-12-18T14:56:51;20.13;;;7.88;;
72156;SDS011;60035;52.122;5.406;2022-12-18T14:59:26;22.70;;;8.57;;
72156;SDS011;60035;52.122;5.406;2022-12-18T15:01:58;20.45;;;8.52;;
72156;SDS011;60035;52.122;5.406;2022-12-18T15:04:37;20.15;;;8.32;;
72156;SDS011;60035;52.122;5.406;2022-12-18T15:07:14;19.30;;;7.82;;
72156;SDS011;60035;52.122;5.406;2022-12-18T15:12:34;20.65;;;7.93;;
72156;SDS011;60035;52.122;5.406;2022-12-18T15:15:03;20.20;;;8.77;;
72156;SDS011;60035;52.122;5.406;2022-12-18T15:17:31;20.33;;;7.53;;
72156;SDS011;60035;52.122;5.406;2022-12-18T15:20:01;22.80;;;8.60;;
72156;SDS011;60035;52.122;5.406;2022-12-18T15:22:30;22.17;;;8.73;;
72156;SDS011;60035;52.122;5.406;2022-12-18T15:25:01;21.95;;;9.25;;
72156;SDS011;60035;52.122;5.406;2022-12-18T15:27:30;21.98;;;9.98;;
72156;SDS011;60035;52.122;5.406;2022-12-18T15:32:34;23.13;;;8.85;;
72156;SDS011;60035;52.122;5.406;2022-12-18T15:37:35;25.17;;;8.85;;
72156;SDS011;60035;52.122;5.406;2022-12-18T15:40:02;17.77;;;7.47;;
72156;SDS011;60035;52.122;5.406;2022-12-18T15:42:29;19.50;;;8.98;;
72156;SDS011;60035;52.122;5.406;2022-12-18T15:45:15;20.60;;;8.80;;
72156;SDS011;60035;52.122;5.406;2022-12-18T15:47:43;20.52;;;8.90;;
72156;SDS011;60035;52.122;5.406;2022-12-18T15:50:10;23.10;;;9.65;;
72156;SDS011;60035;52.122;5.406;2022-12-18T15:52:39;22.00;;;8.43;;
72156;SDS011;60035;52.122;5.406;2022-12-18T15:55:15;19.60;;;8.10;;
72156;SDS011;60035;52.122;5.406;2022-12-18T15:58:05;21.02;;;8.88;;
72156;SDS011;60035;52.122;5.406;2022-12-18T16:00:34;19.67;;;7.75;;
72156;SDS011;60035;52.122;5.406;2022-12-18T16:03:03;24.13;;;10.40;;
72156;SDS011;60035;52.122;5.406;2022-12-18T16:05:30;22.10;;;9.23;;
72156;SDS011;60035;52.122;5.406;2022-12-18T16:07:57;21.83;;;9.20;;
72156;SDS011;60035;52.122;5.406;2022-12-18T16:10:24;25.30;;;9.25;;
72156;SDS011;60035;52.122;5.406;2022-12-18T16:12:52;22.65;;;10.43;;
72156;SDS011;60035;52.122;5.406;2022-12-18T16:15:18;22.33;;;8.50;;
72156;SDS011;60035;52.122;5.406;2022-12-18T16:20:18;23.38;;;7.97;;
72156;SDS011;60035;52.122;5.406;2022-12-18T16:22:47;23.77;;;8.98;;
72156;SDS011;60035;52.122;5.406;2022-12-18T16:25:19;21.05;;;9.00;;
72156;SDS011;60035;52.122;5.406;2022-12-18T16:27:47;23.85;;;9.80;;
72156;SDS011;60035;52.122;5.406;2022-12-18T16:30:15;22.13;;;8.80;;
72156;SDS011;60035;52.122;5.406;2022-12-18T16:32:44;23.67;;;8.30;;
72156;SDS011;60035;52.122;5.406;2022-12-18T16:35:11;23.17;;;9.32;;
72156;SDS011;60035;52.122;5.406;2022-12-18T16:37:39;21.17;;;8.93;;
72156;SDS011;60035;52.122;5.406;2022-12-18T16:40:12;23.88;;;8.93;;
72156;SDS011;60035;52.122;5.406;2022-12-18T16:42:40;23.83;;;8.57;;
72156;SDS011;60035;52.122;5.406;2022-12-18T16:45:09;22.15;;;9.95;;
72156;SDS011;60035;52.122;5.406;2022-12-18T16:47:37;24.42;;;10.32;;
72156;SDS011;60035;52.122;5.406;2022-12-18T16:50:04;24.38;;;10.20;;
72156;SDS011;60035;52.122;5.406;2022-12-18T16:52:32;21.48;;;8.55;;
72156;SDS011;60035;52.122;5.406;2022-12-18T16:54:58;24.33;;;10.02;;